Ana Sayfa
METAR-TAF:

METAR-TAF

Havaalanları :

Washington, Pensilvanya, Amerika Birleşik Devletleri

Enlem: 40-08N, Boylam: 080-17W, yükseklik: 361 m

Güncel hava durumu gözlemi

Rapor saat 09:56 UTC de 40 dakika önce yapıldı.
Rüzgar batı/güneybatıdan 7 kt
Sıcaklık -5°C
Nem 86%
Basınç 1013 hPa
Görüş mesafesi: 14.5 km
3500 ft yükseklikte parçalı bulutlu
5000 ft yükseklikte çok bulutlu

METAR: KAFJ 280956Z AUTO 24007KT 9SM SCT035 OVC050 M05/M07 A2992 RMK AO2 SLP148 T10501067 PWINO FZRANO

Saat: 05:36 (10:36 UTC)


TAF: eksik

4.000'den fazla havaalanı için hava durumu gözlemleri ve tahminleri (METAR ve TAF raporları).

Kullanılabilir istasyonlar harita üzerinde sarı ve kırmızı noktalarla gösterilir.

İstasyonun adını görmek için fareyi noktanın üzerinde gezdirin.

Sonrasında hava gözlem ve tahminlerini görmek için tıklayın.

Haritayı değiştirmek için: yaklaştırmak için siyah artı işaretli yeşil düğmeye ve uzaklaştırmak için de eksi işaretli düğmeye hızla tıklayın; bitişik haritalar için yeşil okları kullanın.


METAR-TAF: